sensor_id;sensor_type;location;lat;lon;timestamp;pressure;altitude;pressure_sealevel;temperature;humidity
71976;BME280;60680;52.182;5.398;2022-07-18T00:01:58;102498.19;;;20.02;54.69
71976;BME280;60680;52.182;5.398;2022-07-18T00:04:25;102495.94;;;19.96;55.10
71976;BME280;60680;52.182;5.398;2022-07-18T00:06:53;102491.03;;;19.90;54.99
71976;BME280;60680;52.182;5.398;2022-07-18T00:09:19;102490.09;;;19.91;54.97
71976;BME280;60680;52.182;5.398;2022-07-18T00:11:49;102495.50;;;19.89;55.15
71976;BME280;60680;52.182;5.398;2022-07-18T00:14:15;102490.31;;;19.73;55.31
71976;BME280;60680;52.182;5.398;2022-07-18T00:16:42;102493.91;;;19.72;56.01
71976;BME280;60680;52.182;5.398;2022-07-18T00:19:08;102490.31;;;19.73;55.97
71976;BME280;60680;52.182;5.398;2022-07-18T00:21:35;102493.91;;;19.72;55.52
71976;BME280;60680;52.182;5.398;2022-07-18T00:24:01;102492.28;;;19.70;55.60
71976;BME280;60680;52.182;5.398;2022-07-18T00:26:28;102488.72;;;19.71;55.73
71976;BME280;60680;52.182;5.398;2022-07-18T00:28:55;102484.63;;;19.65;55.40
71976;BME280;60680;52.182;5.398;2022-07-18T00:31:22;102490.56;;;19.54;55.62
71976;BME280;60680;52.182;5.398;2022-07-18T00:33:48;102488.06;;;19.53;55.98
71976;BME280;60680;52.182;5.398;2022-07-18T00:36:15;102478.97;;;19.57;55.16
71976;BME280;60680;52.182;5.398;2022-07-18T00:38:41;102479.38;;;19.51;55.81
71976;BME280;60680;52.182;5.398;2022-07-18T00:41:08;102472.59;;;19.47;56.34
71976;BME280;60680;52.182;5.398;2022-07-18T00:43:35;102473.25;;;19.36;55.83
71976;BME280;60680;52.182;5.398;2022-07-18T00:46:01;102473.91;;;19.40;56.34
71976;BME280;60680;52.182;5.398;2022-07-18T00:48:28;102466.94;;;19.39;56.00
71976;BME280;60680;52.182;5.398;2022-07-18T00:50:55;102470.13;;;19.29;56.37
71976;BME280;60680;52.182;5.398;2022-07-18T00:53:22;102466.84;;;19.26;56.26
71976;BME280;60680;52.182;5.398;2022-07-18T00:55:51;102469.28;;;19.29;55.71
71976;BME280;60680;52.182;5.398;2022-07-18T00:58:18;102469.56;;;19.24;56.09
71976;BME280;60680;52.182;5.398;2022-07-18T01:00:45;102464.19;;;19.11;56.62
71976;BME280;60680;52.182;5.398;2022-07-18T01:03:31;102466.75;;;19.13;56.26
71976;BME280;60680;52.182;5.398;2022-07-18T01:05:57;102469.66;;;19.08;56.32
71976;BME280;60680;52.182;5.398;2022-07-18T01:08:26;102469.38;;;19.13;55.72
71976;BME280;60680;52.182;5.398;2022-07-18T01:10:52;102461.47;;;19.13;55.37
71976;BME280;60680;52.182;5.398;2022-07-18T01:13:20;102464.16;;;18.97;55.94
71976;BME280;60680;52.182;5.398;2022-07-18T01:15:47;102468.19;;;18.88;56.22
71976;BME280;60680;52.182;5.398;2022-07-18T01:18:14;102471.53;;;18.92;56.57
71976;BME280;60680;52.182;5.398;2022-07-18T01:20:40;102467.28;;;18.89;56.06
71976;BME280;60680;52.182;5.398;2022-07-18T01:23:07;102459.44;;;18.88;56.22
71976;BME280;60680;52.182;5.398;2022-07-18T01:25:34;102458.47;;;18.74;56.64
71976;BME280;60680;52.182;5.398;2022-07-18T01:28:00;102454.09;;;18.73;56.73
71976;BME280;60680;52.182;5.398;2022-07-18T01:30:27;102461.09;;;18.74;56.72
71976;BME280;60680;52.182;5.398;2022-07-18T01:32:59;102462.84;;;18.74;56.81
71976;BME280;60680;52.182;5.398;2022-07-18T01:35:27;102460.97;;;18.76;56.56
71976;BME280;60680;52.182;5.398;2022-07-18T01:37:57;102456.75;;;18.73;56.44
71976;BME280;60680;52.182;5.398;2022-07-18T01:40:25;102456.25;;;18.67;57.02
71976;BME280;60680;52.182;5.398;2022-07-18T01:42:52;102453.97;;;18.61;56.51
71976;BME280;60680;52.182;5.398;2022-07-18T01:45:20;102448.63;;;18.62;56.53
71976;BME280;60680;52.182;5.398;2022-07-18T01:47:47;102449.06;;;18.54;56.51
71976;BME280;60680;52.182;5.398;2022-07-18T01:50:15;102437.59;;;18.56;56.74
71976;BME280;60680;52.182;5.398;2022-07-18T01:52:41;102435.72;;;18.58;56.49
71976;BME280;60680;52.182;5.398;2022-07-18T01:55:09;102432.75;;;18.48;56.79
71976;BME280;60680;52.182;5.398;2022-07-18T01:57:37;102438.47;;;18.40;56.63
71976;BME280;60680;52.182;5.398;2022-07-18T02:00:05;102433.03;;;18.43;56.34
71976;BME280;60680;52.182;5.398;2022-07-18T02:02:32;102440.09;;;18.43;56.67
71976;BME280;60680;52.182;5.398;2022-07-18T02:04:59;102439.22;;;18.42;57.07
71976;BME280;60680;52.182;5.398;2022-07-18T02:07:37;102450.88;;;18.38;57.15
71976;BME280;60680;52.182;5.398;2022-07-18T02:10:13;102448.44;;;18.35;57.23
71976;BME280;60680;52.182;5.398;2022-07-18T02:12:40;102448.72;;;18.30;57.21
71976;BME280;60680;52.182;5.398;2022-07-18T02:15:09;102444.28;;;18.31;57.51
71976;BME280;60680;52.182;5.398;2022-07-18T02:17:36;102435.59;;;18.29;57.30
71976;BME280;60680;52.182;5.398;2022-07-18T02:20:08;102431.44;;;18.25;57.95
71976;BME280;60680;52.182;5.398;2022-07-18T02:22:34;102426.25;;;18.23;57.76
71976;BME280;60680;52.182;5.398;2022-07-18T02:25:02;102422.22;;;18.18;57.50
71976;BME280;60680;52.182;5.398;2022-07-18T02:27:28;102415.34;;;18.15;57.75
71976;BME280;60680;52.182;5.398;2022-07-18T02:29:55;102416.34;;;18.12;57.70
71976;BME280;60680;52.182;5.398;2022-07-18T02:32:22;102407.88;;;18.07;57.77
71976;BME280;60680;52.182;5.398;2022-07-18T02:34:49;102406.25;;;18.05;58.19
71976;BME280;60680;52.182;5.398;2022-07-18T02:37:16;102405.66;;;18.00;58.50
71976;BME280;60680;52.182;5.398;2022-07-18T02:39:43;102410.00;;;18.01;57.80
71976;BME280;60680;52.182;5.398;2022-07-18T02:42:10;102416.28;;;17.98;58.00
71976;BME280;60680;52.182;5.398;2022-07-18T02:44:36;102411.44;;;17.90;58.29
71976;BME280;60680;52.182;5.398;2022-07-18T02:47:03;102415.59;;;17.95;58.19
71976;BME280;60680;52.182;5.398;2022-07-18T02:49:30;102417.22;;;17.97;57.91
71976;BME280;60680;52.182;5.398;2022-07-18T02:52:00;102419.94;;;17.96;57.86
71976;BME280;60680;52.182;5.398;2022-07-18T02:54:29;102424.88;;;17.86;58.59
71976;BME280;60680;52.182;5.398;2022-07-18T02:56:55;102421.28;;;17.87;58.57
71976;BME280;60680;52.182;5.398;2022-07-18T02:59:22;102415.19;;;17.86;58.75
71976;BME280;60680;52.182;5.398;2022-07-18T03:01:49;102410.75;;;17.87;58.95
71976;BME280;60680;52.182;5.398;2022-07-18T03:04:17;102416.13;;;17.85;58.78
71976;BME280;60680;52.182;5.398;2022-07-18T03:06:45;102412.75;;;17.83;58.69
71976;BME280;60680;52.182;5.398;2022-07-18T03:09:13;102413.66;;;17.82;58.25
71976;BME280;60680;52.182;5.398;2022-07-18T03:11:40;102411.25;;;17.78;58.71
71976;BME280;60680;52.182;5.398;2022-07-18T03:14:07;102413.13;;;17.60;59.57
71976;BME280;60680;52.182;5.398;2022-07-18T03:16:34;102406.16;;;17.59;59.37
71976;BME280;60680;52.182;5.398;2022-07-18T03:19:01;102405.31;;;17.58;59.10
71976;BME280;60680;52.182;5.398;2022-07-18T03:21:27;102401.16;;;17.54;59.51
71976;BME280;60680;52.182;5.398;2022-07-18T03:23:56;102393.84;;;17.59;59.62
71976;BME280;60680;52.182;5.398;2022-07-18T03:26:22;102386.81;;;17.60;59.55
71976;BME280;60680;52.182;5.398;2022-07-18T03:28:49;102388.84;;;17.55;59.90
71976;BME280;60680;52.182;5.398;2022-07-18T03:31:16;102386.19;;;17.55;59.45
71976;BME280;60680;52.182;5.398;2022-07-18T03:33:42;102384.78;;;17.49;59.13
71976;BME280;60680;52.182;5.398;2022-07-18T03:36:09;102382.28;;;17.46;59.05
71976;BME280;60680;52.182;5.398;2022-07-18T03:38:36;102370.94;;;17.45;59.10
71976;BME280;60680;52.182;5.398;2022-07-18T03:41:03;102377.22;;;17.43;59.02
71976;BME280;60680;52.182;5.398;2022-07-18T03:43:30;102377.38;;;17.40;59.57
71976;BME280;60680;52.182;5.398;2022-07-18T03:45:57;102366.84;;;17.40;58.99
71976;BME280;60680;52.182;5.398;2022-07-18T03:48:23;102367.28;;;17.32;59.49
71976;BME280;60680;52.182;5.398;2022-07-18T03:50:50;102367.28;;;17.32;59.41
71976;BME280;60680;52.182;5.398;2022-07-18T03:53:17;102361.75;;;17.37;59.26
71976;BME280;60680;52.182;5.398;2022-07-18T03:55:44;102352.00;;;17.39;59.33
71976;BME280;60680;52.182;5.398;2022-07-18T03:58:10;102350.47;;;17.35;58.85
71976;BME280;60680;52.182;5.398;2022-07-18T04:00:37;102352.72;;;17.25;59.27
71976;BME280;60680;52.182;5.398;2022-07-18T04:03:04;102352.22;;;17.18;59.29
71976;BME280;60680;52.182;5.398;2022-07-18T04:05:31;102352.16;;;17.20;59.41
71976;BME280;60680;52.182;5.398;2022-07-18T04:07:58;102351.97;;;17.23;59.19
71976;BME280;60680;52.182;5.398;2022-07-18T04:10:24;102347.47;;;17.25;59.38
71976;BME280;60680;52.182;5.398;2022-07-18T04:12:53;102336.03;;;17.26;58.98
71976;BME280;60680;52.182;5.398;2022-07-18T04:15:25;102341.19;;;17.27;58.83
71976;BME280;60680;52.182;5.398;2022-07-18T04:17:52;102337.97;;;17.22;59.01
71976;BME280;60680;52.182;5.398;2022-07-18T04:20:20;102338.75;;;17.24;59.10
71976;BME280;60680;52.182;5.398;2022-07-18T04:22:58;102346.38;;;17.29;58.75
71976;BME280;60680;52.182;5.398;2022-07-18T04:25:27;102341.28;;;17.26;58.62
71976;BME280;60680;52.182;5.398;2022-07-18T04:27:54;102346.44;;;17.27;59.04
71976;BME280;60680;52.182;5.398;2022-07-18T04:30:23;102335.84;;;17.29;58.80
71976;BME280;60680;52.182;5.398;2022-07-18T04:32:51;102339.31;;;17.29;59.04
71976;BME280;60680;52.182;5.398;2022-07-18T04:35:20;102347.13;;;17.31;59.03
71976;BME280;60680;52.182;5.398;2022-07-18T04:37:46;102339.16;;;17.32;58.90
71976;BME280;60680;52.182;5.398;2022-07-18T04:40:14;102341.72;;;17.34;58.44
71976;BME280;60680;52.182;5.398;2022-07-18T04:42:42;102342.72;;;17.31;59.06
71976;BME280;60680;52.182;5.398;2022-07-18T04:45:09;102339.16;;;17.32;58.87
71976;BME280;60680;52.182;5.398;2022-07-18T04:47:36;102339.94;;;17.35;58.85
71976;BME280;60680;52.182;5.398;2022-07-18T04:50:05;102335.50;;;17.35;58.65
71976;BME280;60680;52.182;5.398;2022-07-18T04:52:36;102340.78;;;17.35;58.89
71976;BME280;60680;52.182;5.398;2022-07-18T04:55:04;102341.53;;;17.37;58.77
71976;BME280;60680;52.182;5.398;2022-07-18T04:57:30;102345.03;;;17.38;59.05
71976;BME280;60680;52.182;5.398;2022-07-18T04:59:57;102352.84;;;17.39;59.46
71976;BME280;60680;52.182;5.398;2022-07-18T05:02:24;102361.31;;;17.44;58.63
71976;BME280;60680;52.182;5.398;2022-07-18T05:04:50;102365.75;;;17.44;59.09
71976;BME280;60680;52.182;5.398;2022-07-18T05:07:17;102363.38;;;17.39;59.05
71976;BME280;60680;52.182;5.398;2022-07-18T05:09:43;102353.53;;;17.43;59.20
71976;BME280;60680;52.182;5.398;2022-07-18T05:12:10;102358.03;;;17.41;59.56
71976;BME280;60680;52.182;5.398;2022-07-18T05:14:36;102346.47;;;17.43;59.13
71976;BME280;60680;52.182;5.398;2022-07-18T05:17:04;102355.97;;;17.46;59.06
71976;BME280;60680;52.182;5.398;2022-07-18T05:19:31;102354.19;;;17.46;59.62
71976;BME280;60680;52.182;5.398;2022-07-18T05:21:57;102353.41;;;17.44;59.29
71976;BME280;60680;52.182;5.398;2022-07-18T05:24:24;102357.00;;;17.43;59.19
71976;BME280;60680;52.182;5.398;2022-07-18T05:26:50;102362.25;;;17.43;59.22
71976;BME280;60680;52.182;5.398;2022-07-18T05:29:17;102355.81;;;17.49;59.87
71976;BME280;60680;52.182;5.398;2022-07-18T05:31:44;102353.00;;;17.52;59.51
71976;BME280;60680;52.182;5.398;2022-07-18T05:34:10;102346.38;;;17.61;58.90
71976;BME280;60680;52.182;5.398;2022-07-18T05:36:37;102345.47;;;17.62;58.62
71976;BME280;60680;52.182;5.398;2022-07-18T05:39:04;102341.59;;;17.67;58.87
71976;BME280;60680;52.182;5.398;2022-07-18T05:41:30;102340.59;;;17.70;58.51
71976;BME280;60680;52.182;5.398;2022-07-18T05:43:57;102341.09;;;17.77;58.08
71976;BME280;60680;52.182;5.398;2022-07-18T05:46:24;102342.59;;;17.81;58.23
71976;BME280;60680;52.182;5.398;2022-07-18T05:48:51;102333.75;;;17.83;59.41
71976;BME280;60680;52.182;5.398;2022-07-18T05:51:19;102332.63;;;17.87;58.71
71976;BME280;60680;52.182;5.398;2022-07-18T05:53:46;102326.13;;;17.93;57.58
71976;BME280;60680;52.182;5.398;2022-07-18T05:56:13;102324.88;;;18.00;57.82
71976;BME280;60680;52.182;5.398;2022-07-18T05:58:39;102325.34;;;18.07;58.20
71976;BME280;60680;52.182;5.398;2022-07-18T06:01:12;102319.44;;;18.18;57.58
71976;BME280;60680;52.182;5.398;2022-07-18T06:03:43;102318.44;;;18.34;57.14
71976;BME280;60680;52.182;5.398;2022-07-18T06:06:10;102314.69;;;18.53;57.04
71976;BME280;60680;52.182;5.398;2022-07-18T06:08:36;102315.78;;;18.79;56.09
71976;BME280;60680;52.182;5.398;2022-07-18T06:11:03;102311.22;;;18.95;56.26
71976;BME280;60680;52.182;5.398;2022-07-18T06:13:30;102322.06;;;18.91;55.67
71976;BME280;60680;52.182;5.398;2022-07-18T06:15:56;102310.97;;;18.86;55.76
71976;BME280;60680;52.182;5.398;2022-07-18T06:18:23;102314.53;;;18.85;55.91
71976;BME280;60680;52.182;5.398;2022-07-18T06:20:50;102307.28;;;18.88;56.43
71976;BME280;60680;52.182;5.398;2022-07-18T06:23:16;102312.94;;;18.97;56.52
71976;BME280;60680;52.182;5.398;2022-07-18T06:25:43;102314.34;;;19.02;56.30
71976;BME280;60680;52.182;5.398;2022-07-18T06:28:09;102313.09;;;19.08;56.80
71976;BME280;60680;52.182;5.398;2022-07-18T06:30:36;102314.22;;;19.18;56.11
71976;BME280;60680;52.182;5.398;2022-07-18T06:33:03;102318.81;;;19.29;56.56
71976;BME280;60680;52.182;5.398;2022-07-18T06:35:32;102312.97;;;19.38;56.11
71976;BME280;60680;52.182;5.398;2022-07-18T06:37:58;102311.31;;;19.50;55.50
71976;BME280;60680;52.182;5.398;2022-07-18T06:40:25;102315.16;;;19.59;54.68
71976;BME280;60680;52.182;5.398;2022-07-18T06:42:52;102317.09;;;19.69;54.73
71976;BME280;60680;52.182;5.398;2022-07-18T06:45:19;102325.94;;;19.83;54.75
71976;BME280;60680;52.182;5.398;2022-07-18T06:47:45;102315.59;;;19.92;53.66
71976;BME280;60680;52.182;5.398;2022-07-18T06:50:13;102317.63;;;20.02;53.20
71976;BME280;60680;52.182;5.398;2022-07-18T06:52:41;102311.44;;;20.15;53.44
71976;BME280;60680;52.182;5.398;2022-07-18T06:55:09;102306.38;;;20.25;52.60
71976;BME280;60680;52.182;5.398;2022-07-18T06:57:36;102299.69;;;20.32;51.70
71976;BME280;60680;52.182;5.398;2022-07-18T07:00:04;102305.72;;;20.47;51.78
71976;BME280;60680;52.182;5.398;2022-07-18T07:02:31;102302.38;;;20.58;51.71
71976;BME280;60680;52.182;5.398;2022-07-18T07:04:57;102302.69;;;20.66;51.86
71976;BME280;60680;52.182;5.398;2022-07-18T07:07:24;102298.31;;;20.78;51.91
71976;BME280;60680;52.182;5.398;2022-07-18T07:09:50;102295.06;;;20.74;50.64
71976;BME280;60680;52.182;5.398;2022-07-18T07:12:17;102297.88;;;20.84;51.16
71976;BME280;60680;52.182;5.398;2022-07-18T07:14:43;102297.75;;;20.98;51.53
71976;BME280;60680;52.182;5.398;2022-07-18T07:17:09;102297.63;;;21.13;51.10
71976;BME280;60680;52.182;5.398;2022-07-18T07:19:36;102304.44;;;21.28;51.45
71976;BME280;60680;52.182;5.398;2022-07-18T07:22:02;102304.41;;;21.41;49.50
71976;BME280;60680;52.182;5.398;2022-07-18T07:24:29;102301.81;;;21.52;50.06
71976;BME280;60680;52.182;5.398;2022-07-18T07:26:55;102297.44;;;21.64;51.28
71976;BME280;60680;52.182;5.398;2022-07-18T07:29:22;102306.41;;;21.74;49.36
71976;BME280;60680;52.182;5.398;2022-07-18T07:31:48;102296.06;;;21.83;50.14
71976;BME280;60680;52.182;5.398;2022-07-18T07:34:15;102296.09;;;21.94;50.23
71976;BME280;60680;52.182;5.398;2022-07-18T07:36:42;102307.47;;;22.07;49.82
71976;BME280;60680;52.182;5.398;2022-07-18T07:39:08;102307.63;;;22.17;48.77
71976;BME280;60680;52.182;5.398;2022-07-18T07:41:35;102303.34;;;22.27;48.65
71976;BME280;60680;52.182;5.398;2022-07-18T07:44:01;102306.34;;;22.34;47.29
71976;BME280;60680;52.182;5.398;2022-07-18T07:46:28;102307.19;;;22.46;48.79
71976;BME280;60680;52.182;5.398;2022-07-18T07:48:54;102318.66;;;22.57;47.54
71976;BME280;60680;52.182;5.398;2022-07-18T07:51:21;102310.72;;;22.69;48.11
71976;BME280;60680;52.182;5.398;2022-07-18T07:53:51;102299.50;;;22.76;46.90
71976;BME280;60680;52.182;5.398;2022-07-18T07:56:17;102307.81;;;22.83;47.00
71976;BME280;60680;52.182;5.398;2022-07-18T07:58:46;102306.50;;;22.89;47.75
71976;BME280;60680;52.182;5.398;2022-07-18T08:01:13;102307.78;;;22.94;47.59
71976;BME280;60680;52.182;5.398;2022-07-18T08:03:41;102301.81;;;23.04;47.25
71976;BME280;60680;52.182;5.398;2022-07-18T08:06:07;102295.75;;;23.13;46.57
71976;BME280;60680;52.182;5.398;2022-07-18T08:08:34;102283.25;;;23.25;47.58
71976;BME280;60680;52.182;5.398;2022-07-18T08:11:03;102283.47;;;23.33;45.59
71976;BME280;60680;52.182;5.398;2022-07-18T08:13:30;102294.00;;;23.34;44.81
71976;BME280;60680;52.182;5.398;2022-07-18T08:15:57;102288.19;;;23.40;44.12
71976;BME280;60680;52.182;5.398;2022-07-18T08:18:23;102282.56;;;23.55;44.85
71976;BME280;60680;52.182;5.398;2022-07-18T08:20:49;102282.25;;;23.69;44.05
71976;BME280;60680;52.182;5.398;2022-07-18T08:23:16;102284.31;;;23.77;44.66
71976;BME280;60680;52.182;5.398;2022-07-18T08:25:46;102281.56;;;23.88;43.62
71976;BME280;60680;52.182;5.398;2022-07-18T08:28:13;102276.13;;;23.90;42.81
71976;BME280;60680;52.182;5.398;2022-07-18T08:30:40;102282.50;;;23.98;42.66
71976;BME280;60680;52.182;5.398;2022-07-18T08:33:07;102276.38;;;24.08;42.82
71976;BME280;60680;52.182;5.398;2022-07-18T08:35:35;102274.78;;;24.16;43.44
71976;BME280;60680;52.182;5.398;2022-07-18T08:38:03;102279.28;;;24.26;42.08
71976;BME280;60680;52.182;5.398;2022-07-18T08:40:30;102278.66;;;24.33;41.45
71976;BME280;60680;52.182;5.398;2022-07-18T08:42:57;102273.34;;;24.43;41.21
71976;BME280;60680;52.182;5.398;2022-07-18T08:45:45;102281.16;;;24.56;41.55
71976;BME280;60680;52.182;5.398;2022-07-18T08:48:16;102288.66;;;24.72;41.63
71976;BME280;60680;52.182;5.398;2022-07-18T08:50:44;102292.31;;;24.80;40.90
71976;BME280;60680;52.182;5.398;2022-07-18T08:53:12;102287.56;;;24.94;41.74
71976;BME280;60680;52.182;5.398;2022-07-18T08:55:38;102283.69;;;25.08;41.63
71976;BME280;60680;52.182;5.398;2022-07-18T08:58:05;102290.59;;;25.20;40.13
71976;BME280;60680;52.182;5.398;2022-07-18T09:00:52;102286.41;;;25.37;40.75
71976;BME280;60680;52.182;5.398;2022-07-18T09:03:18;102283.06;;;25.45;39.67
71976;BME280;60680;52.182;5.398;2022-07-18T09:05:45;102288.09;;;25.38;40.52
71976;BME280;60680;52.182;5.398;2022-07-18T09:08:17;102287.94;;;25.39;40.31
71976;BME280;60680;52.182;5.398;2022-07-18T09:10:54;102284.47;;;25.49;40.71
71976;BME280;60680;52.182;5.398;2022-07-18T09:13:25;102285.16;;;25.60;39.59
71976;BME280;60680;52.182;5.398;2022-07-18T09:16:04;102281.94;;;25.57;39.47
71976;BME280;60680;52.182;5.398;2022-07-18T09:18:37;102281.94;;;25.47;38.18
71976;BME280;60680;52.182;5.398;2022-07-18T09:21:08;102286.84;;;25.32;40.89
71976;BME280;60680;52.182;5.398;2022-07-18T09:23:38;102281.16;;;25.16;39.44
71976;BME280;60680;52.182;5.398;2022-07-18T09:26:06;102273.88;;;25.08;39.70
71976;BME280;60680;52.182;5.398;2022-07-18T09:28:48;102273.84;;;24.98;40.18
71976;BME280;60680;52.182;5.398;2022-07-18T09:31:34;102271.03;;;24.90;39.70
71976;BME280;60680;52.182;5.398;2022-07-18T09:34:03;102275.94;;;24.85;39.89
71976;BME280;60680;52.182;5.398;2022-07-18T09:36:29;102276.75;;;24.86;39.55
71976;BME280;60680;52.182;5.398;2022-07-18T09:39:17;102271.44;;;24.86;39.98
71976;BME280;60680;52.182;5.398;2022-07-18T09:41:44;102271.84;;;24.81;38.74
71976;BME280;60680;52.182;5.398;2022-07-18T09:44:19;102270.72;;;24.74;39.78
71976;BME280;60680;52.182;5.398;2022-07-18T09:47:01;102265.22;;;24.66;40.55
71976;BME280;60680;52.182;5.398;2022-07-18T09:49:31;102266.34;;;24.63;41.75
71976;BME280;60680;52.182;5.398;2022-07-18T09:52:09;102271.09;;;24.59;42.27
71976;BME280;60680;52.182;5.398;2022-07-18T09:54:40;102271.44;;;24.86;44.58
71976;BME280;60680;52.182;5.398;2022-07-18T09:57:08;102264.47;;;25.14;42.09
71976;BME280;60680;52.182;5.398;2022-07-18T09:59:35;102259.22;;;25.33;41.72
71976;BME280;60680;52.182;5.398;2022-07-18T10:02:05;102250.66;;;25.59;41.07
71976;BME280;60680;52.182;5.398;2022-07-18T10:04:32;102257.50;;;25.81;40.39
71976;BME280;60680;52.182;5.398;2022-07-18T10:06:59;102255.94;;;25.98;40.26
71976;BME280;60680;52.182;5.398;2022-07-18T10:09:25;102258.84;;;26.14;39.39
71976;BME280;60680;52.182;5.398;2022-07-18T10:11:53;102254.03;;;26.28;39.77
71976;BME280;60680;52.182;5.398;2022-07-18T10:14:28;102257.66;;;26.36;38.67
71976;BME280;60680;52.182;5.398;2022-07-18T10:16:56;102262.94;;;26.46;39.10
71976;BME280;60680;52.182;5.398;2022-07-18T10:19:23;102256.44;;;26.58;39.56
71976;BME280;60680;52.182;5.398;2022-07-18T10:21:49;102250.22;;;26.68;38.07
71976;BME280;60680;52.182;5.398;2022-07-18T10:24:20;102247.81;;;26.74;36.68
71976;BME280;60680;52.182;5.398;2022-07-18T10:27:14;102251.25;;;26.84;37.66
71976;BME280;60680;52.182;5.398;2022-07-18T10:30:10;102249.06;;;26.98;38.07
71976;BME280;60680;52.182;5.398;2022-07-18T10:32:38;102244.84;;;27.13;37.55
71976;BME280;60680;52.182;5.398;2022-07-18T10:35:05;102253.53;;;27.25;37.18
71976;BME280;60680;52.182;5.398;2022-07-18T10:37:34;102252.75;;;27.33;36.54
71976;BME280;60680;52.182;5.398;2022-07-18T10:46:09;102246.78;;;27.57;34.42
71976;BME280;60680;52.182;5.398;2022-07-18T10:51:08;102246.59;;;27.76;32.84
71976;BME280;60680;52.182;5.398;2022-07-18T10:57:03;102238.19;;;27.89;33.88
71976;BME280;60680;52.182;5.398;2022-07-18T10:59:30;102246.00;;;28.09;33.31
71976;BME280;60680;52.182;5.398;2022-07-18T11:01:57;102241.16;;;28.12;32.59
71976;BME280;60680;52.182;5.398;2022-07-18T11:04:32;102238.34;;;28.14;31.93
71976;BME280;60680;52.182;5.398;2022-07-18T11:07:07;102234.88;;;28.30;32.52
71976;BME280;60680;52.182;5.398;2022-07-18T11:09:38;102233.75;;;28.40;32.11
71976;BME280;60680;52.182;5.398;2022-07-18T11:12:27;102233.34;;;28.53;32.41
71976;BME280;60680;52.182;5.398;2022-07-18T11:18:08;102228.03;;;28.70;32.64
71976;BME280;60680;52.182;5.398;2022-07-18T11:20:39;102219.16;;;28.69;30.45
71976;BME280;60680;52.182;5.398;2022-07-18T11:25:43;102213.16;;;28.83;32.09
71976;BME280;60680;52.182;5.398;2022-07-18T11:28:26;102213.16;;;28.92;30.68
71976;BME280;60680;52.182;5.398;2022-07-18T11:31:05;102214.53;;;29.04;30.42
71976;BME280;60680;52.182;5.398;2022-07-18T11:33:34;102217.41;;;29.11;30.16
71976;BME280;60680;52.182;5.398;2022-07-18T11:36:10;102211.06;;;29.12;30.77
71976;BME280;60680;52.182;5.398;2022-07-18T11:38:39;102208.72;;;29.17;29.46
71976;BME280;60680;52.182;5.398;2022-07-18T11:41:06;102203.69;;;29.14;28.98
71976;BME280;60680;52.182;5.398;2022-07-18T11:43:33;102204.19;;;29.34;30.72
71976;BME280;60680;52.182;5.398;2022-07-18T11:48:27;102194.28;;;29.34;29.71
71976;BME280;60680;52.182;5.398;2022-07-18T11:50:54;102197.13;;;29.33;30.57
71976;BME280;60680;52.182;5.398;2022-07-18T11:53:21;102198.63;;;29.52;29.75
71976;BME280;60680;52.182;5.398;2022-07-18T11:55:47;102192.94;;;29.63;30.24
71976;BME280;60680;52.182;5.398;2022-07-18T11:58:16;102190.75;;;29.75;29.77
71976;BME280;60680;52.182;5.398;2022-07-18T12:00:43;102189.91;;;29.82;29.51
71976;BME280;60680;52.182;5.398;2022-07-18T12:03:18;102191.75;;;29.82;29.55
71976;BME280;60680;52.182;5.398;2022-07-18T12:05:50;102189.22;;;29.88;29.73
71976;BME280;60680;52.182;5.398;2022-07-18T12:08:34;102187.00;;;29.92;29.94
71976;BME280;60680;52.182;5.398;2022-07-18T12:19:09;102175.59;;;30.38;29.32
71976;BME280;60680;52.182;5.398;2022-07-18T12:21:50;102174.31;;;30.57;29.31
71976;BME280;60680;52.182;5.398;2022-07-18T12:26:44;102168.81;;;30.50;29.25
71976;BME280;60680;52.182;5.398;2022-07-18T12:29:13;102169.63;;;30.59;29.17
71976;BME280;60680;52.182;5.398;2022-07-18T12:31:45;102169.38;;;30.68;28.62
71976;BME280;60680;52.182;5.398;2022-07-18T12:34:14;102168.94;;;30.88;29.08
71976;BME280;60680;52.182;5.398;2022-07-18T12:36:51;102158.69;;;30.83;28.60
71976;BME280;60680;52.182;5.398;2022-07-18T12:39:30;102157.16;;;30.89;28.32
71976;BME280;60680;52.182;5.398;2022-07-18T12:41:57;102154.03;;;31.00;28.39
71976;BME280;60680;52.182;5.398;2022-07-18T12:44:27;102158.31;;;30.95;26.52
71976;BME280;60680;52.182;5.398;2022-07-18T12:46:55;102153.69;;;31.03;27.48
71976;BME280;60680;52.182;5.398;2022-07-18T12:49:21;102153.25;;;31.15;26.12
71976;BME280;60680;52.182;5.398;2022-07-18T12:51:48;102148.72;;;31.30;27.13
71976;BME280;60680;52.182;5.398;2022-07-18T12:54:16;102150.28;;;31.47;25.38
71976;BME280;60680;52.182;5.398;2022-07-18T12:56:43;102145.25;;;31.44;25.78
71976;BME280;60680;52.182;5.398;2022-07-18T12:59:10;102143.44;;;31.37;24.42
71976;BME280;60680;52.182;5.398;2022-07-18T13:01:37;102135.84;;;31.40;26.24
71976;BME280;60680;52.182;5.398;2022-07-18T13:04:04;102139.97;;;31.51;26.35
71976;BME280;60680;52.182;5.398;2022-07-18T13:06:31;102130.03;;;31.66;26.97
71976;BME280;60680;52.182;5.398;2022-07-18T13:08:57;102128.75;;;31.77;25.48
71976;BME280;60680;52.182;5.398;2022-07-18T13:11:24;102127.06;;;31.76;24.97
71976;BME280;60680;52.182;5.398;2022-07-18T13:13:56;102130.88;;;31.82;25.31
71976;BME280;60680;52.182;5.398;2022-07-18T13:16:22;102125.00;;;31.93;25.23
71976;BME280;60680;52.182;5.398;2022-07-18T13:18:50;102121.94;;;31.96;24.73
71976;BME280;60680;52.182;5.398;2022-07-18T13:21:16;102117.06;;;32.00;24.10
71976;BME280;60680;52.182;5.398;2022-07-18T13:23:44;102115.91;;;32.09;23.40
71976;BME280;60680;52.182;5.398;2022-07-18T13:26:11;102114.59;;;32.20;24.41
71976;BME280;60680;52.182;5.398;2022-07-18T13:28:37;102117.94;;;32.22;23.61